Time;durP1;ratioP1;P1;durP2;ratioP2;P2;SDS_P1;SDS_P2;PMS_P1;PMS_P2;Temp;Humidity;BMP_temperature;BMP_pressure;BME280_temperature;BME280_humidity;BME280_pressure;Samples;Min_cycle;Max_cycle;Signal;HPM_P1;HPM_P2
2022/07/08 14:13:56;;;;;;;3.10;2.83;;;37.50;28.40;;;30.40;22.75;96624.25;5107798;27;20626;-55
2022/07/08 14:16:22;;;;;;;3.13;2.90;;;37.50;26.00;;;30.78;22.06;96622.47;5068672;28;20107;-54
2022/07/08 14:18:47;;;;;;;2.85;2.65;;;38.10;24.50;;;31.05;21.72;96613.00;5069033;28;20827;-55
2022/07/08 14:21:16;;;;;;;3.75;3.13;;;38.80;23.30;;;31.37;21.95;96622.88;5073340;28;20024;-52
2022/07/08 14:23:42;;;;;;;3.20;3.00;;;39.10;22.60;;;31.64;20.84;96616.09;5057211;28;20553;-50
2022/07/08 14:26:09;;;;;;;3.78;3.50;;;39.60;21.80;;;31.79;20.30;96609.59;5083140;28;20375;-57
2022/07/08 14:28:34;;;;;;;3.53;3.03;;;40.20;21.10;;;32.02;20.28;96609.44;5089729;28;20032;-50
2022/07/08 14:31:00;;;;;;;3.75;3.45;;;40.70;20.50;;;32.38;20.48;96609.75;5085416;28;20462;-57
2022/07/08 14:33:26;;;;;;;4.60;3.47;;;41.20;20.00;;;31.33;22.90;96606.28;5091747;28;20027;-52
2022/07/08 14:35:52;;;;;;;3.95;3.65;;;41.70;19.70;;;31.22;22.60;96602.63;5081467;28;20020;-53
2022/07/08 14:38:18;;;;;;;4.20;3.90;;;41.80;19.30;;;30.69;23.50;96608.97;5079986;28;20487;-48
2022/07/08 14:40:45;;;;;;;3.78;3.47;;;41.90;19.10;;;30.36;23.13;96607.66;5080176;28;20381;-57
2022/07/08 14:43:11;;;;;;;3.25;3.05;;;41.90;18.80;;;30.96;22.11;96612.50;5068083;28;20076;-57
2022/07/08 14:45:40;;;;;;;4.50;3.42;;;41.90;18.60;;;31.16;22.92;96607.66;5085484;28;20040;-56
2022/07/08 14:48:06;;;;;;;3.83;3.53;;;42.00;18.50;;;30.78;22.08;96606.78;5085629;28;20119;-53
2022/07/08 14:50:32;;;;;;;3.90;3.60;;;42.30;18.30;;;30.78;21.84;96600.47;5082942;28;20035;-56
2022/07/08 14:52:58;;;;;;;3.70;3.33;;;42.50;18.00;;;31.43;21.24;96608.41;5072523;28;20436;-56
2022/07/08 14:55:26;;;;;;;3.60;3.38;;;42.80;17.80;;;32.23;21.92;96597.03;5080067;28;20031;-56
2022/07/08 14:57:59;;;;;;;4.60;4.30;;;43.30;17.70;;;31.99;21.42;96601.91;5079107;28;20427;-56
2022/07/08 15:00:30;;;;;;;5.60;4.28;;;43.90;17.50;;;31.62;21.78;96603.88;5077616;28;20012;-57
2022/07/08 15:02:56;;;;;;;4.47;4.18;;;44.20;17.10;;;32.09;21.40;96594.94;5076129;28;20414;-56
2022/07/08 15:05:25;;;;;;;4.60;3.97;;;44.60;17.00;;;31.47;21.70;96592.72;5073451;28;20386;-57
2022/07/08 15:08:00;;;;;;;4.13;3.92;;;44.90;16.70;;;32.39;20.15;96594.00;5081872;28;20715;-58
2022/07/08 15:10:27;;;;;;;4.15;3.85;;;45.30;16.40;;;32.33;19.74;96588.03;5073126;28;20032;-58
2022/07/08 15:12:53;;;;;;;4.72;3.92;;;45.80;16.20;;;32.88;19.22;96584.50;5053380;28;20707;-56
2022/07/08 15:15:22;;;;;;;5.93;5.38;;;46.20;15.90;;;32.92;20.41;96586.09;5080035;28;20025;-53
2022/07/08 15:17:48;;;;;;;4.32;3.95;;;46.70;15.70;;;33.17;20.42;96597.28;5082117;28;20024;-56
2022/07/08 15:20:16;;;;;;;5.25;4.85;;;47.20;15.50;;;32.80;20.26;96591.94;5092901;28;20023;-57
2022/07/08 15:22:46;;;;;;;4.47;4.18;;;47.50;15.30;;;32.83;19.82;96590.38;5070507;28;20487;-55
2022/07/08 15:25:12;;;;;;;4.63;4.30;;;47.90;14.90;;;32.72;19.84;96584.81;5059502;28;20033;-57
2022/07/08 15:27:41;;;;;;;5.80;4.93;;;48.00;14.60;;;32.76;19.92;96593.09;5063436;28;20027;-56
2022/07/08 15:30:08;;;;;;;5.57;5.13;;;48.60;14.50;;;33.29;19.35;96585.09;5070513;28;20032;-57
2022/07/08 15:32:35;;;;;;;5.60;5.20;;;49.10;14.10;;;33.35;19.01;96591.03;5066295;28;20470;-55
2022/07/08 15:35:08;;;;;;;7.60;6.57;;;49.80;13.90;;;33.32;20.20;96584.31;5056455;28;20028;-54
2022/07/08 15:37:34;;;;;;;6.18;5.72;;;50.40;13.80;;;33.44;19.71;96585.94;5035085;28;20088;-58
2022/07/08 15:40:02;;;;;;;8.40;7.80;;;51.10;13.50;;;33.77;19.35;96587.63;5076922;23;20476;-52
2022/07/08 15:42:31;;;;;;;7.55;7.15;;;51.80;13.30;;;34.06;18.63;96584.91;5031521;28;20028;-52
2022/07/08 15:44:57;;;;;;;8.90;8.20;;;52.40;12.90;;;34.19;18.78;96580.59;5030865;28;20034;-52
2022/07/08 15:47:23;;;;;;;8.50;8.00;;;52.70;12.70;;;34.52;18.85;96584.13;5012544;28;20395;-53
2022/07/08 15:49:51;;;;;;;10.70;10.02;;;53.00;12.60;;;34.84;18.31;96581.31;5013075;28;20033;-52
2022/07/08 15:52:20;;;;;;;9.30;8.75;;;53.30;12.40;;;35.02;17.74;96581.25;5011205;28;20025;-54
2022/07/08 15:54:46;;;;;;;10.77;10.07;;;53.70;12.30;;;34.43;17.90;96578.19;4994492;28;20040;-52
2022/07/08 15:57:12;;;;;;;9.77;9.18;;;53.80;12.10;;;34.82;18.36;96571.81;5012521;28;20021;-50
2022/07/08 15:59:38;;;;;;;10.77;10.10;;;53.80;12.00;;;34.80;18.34;96575.00;5022117;28;20111;-52
2022/07/08 16:02:10;;;;;;;9.27;8.32;;;53.80;11.90;;;33.49;19.34;96571.75;5021764;28;20439;-53
2022/07/08 16:04:36;;;;;;;8.90;8.20;;;53.50;11.80;;;33.52;19.63;96568.22;5015163;28;20040;-56
2022/07/08 16:07:05;;;;;;;8.07;7.57;;;53.10;11.80;;;33.64;18.76;96567.09;5025725;28;20119;-53
2022/07/08 16:09:32;;;;;;;9.07;8.47;;;52.90;11.70;;;33.01;20.37;96566.47;5015200;28;20036;-53
2022/07/08 16:11:58;;;;;;;7.93;7.20;;;52.60;11.80;;;32.59;20.67;96566.97;5022185;28;20090;-53
2022/07/08 16:14:24;;;;;;;7.22;6.63;;;52.30;11.80;;;32.44;20.54;96566.09;5025723;28;20372;-47
2022/07/08 16:16:54;;;;;;;6.35;5.95;;;52.00;11.80;;;32.57;20.52;96564.63;5009817;28;20025;-50
2022/07/08 16:19:24;;;;;;;6.85;6.18;;;51.80;11.90;;;33.10;19.61;96563.34;5009696;28;20025;-54
2022/07/08 16:22:01;;;;;;;;;;;51.60;11.90;;;33.24;19.26;96562.59;5011621;28;20082;-54
2022/07/08 16:24:29;;;;;;;6.53;6.03;;;51.50;12.20;;;33.23;19.79;96561.03;5009192;28;19994;-52
2022/07/08 16:26:59;;;;;;;6.38;5.88;;;51.60;12.00;;;33.00;19.35;96564.06;5013472;28;20041;-51
2022/07/08 16:29:28;;;;;;;5.90;5.32;;;51.60;11.90;;;33.52;18.93;96571.00;5015063;28;20024;-51
2022/07/08 16:31:53;;;;;;;7.75;7.18;;;51.60;11.90;;;33.68;18.94;96559.59;5024441;28;20033;-50
2022/07/08 16:34:19;;;;;;;7.43;6.93;;;51.70;11.90;;;33.65;19.43;96563.13;5034190;28;20394;-56
2022/07/08 16:36:45;;;;;;;8.30;7.20;;;51.90;11.90;;;33.66;18.84;96563.91;5016161;28;20075;-49
2022/07/08 16:39:11;;;;;;;6.60;6.05;;;52.10;11.80;;;33.13;19.29;96557.84;5021737;28;20102;-53
2022/07/08 16:41:40;;;;;;;6.63;6.13;;;52.10;11.60;;;32.11;20.19;96564.25;5016629;28;20044;-55
2022/07/08 16:44:08;;;;;;;7.22;6.82;;;52.00;11.60;;;31.83;20.47;96565.53;5005241;28;20024;-47
2022/07/08 16:46:34;;;;;;;9.52;6.03;;;51.70;11.50;;;31.31;21.07;96553.59;5010583;28;20029;-52
2022/07/08 16:49:00;;;;;;;5.97;5.57;;;51.60;11.60;;;31.02;21.30;96558.75;5013223;28;20055;-53
2022/07/08 16:51:28;;;;;;;5.55;5.07;;;51.30;11.50;;;31.55;21.25;96550.31;5018560;28;20460;-55
2022/07/08 16:53:54;;;;;;;6.45;6.00;;;51.10;11.60;;;32.00;20.42;96564.97;5016300;28;20029;-53
2022/07/08 16:56:20;;;;;;;5.75;5.35;;;51.00;11.60;;;32.02;20.44;96562.59;5024543;28;20029;-53
2022/07/08 16:58:46;;;;;;;6.50;5.60;;;51.10;11.70;;;32.42;19.86;96558.19;5023181;28;20087;-52
2022/07/08 17:01:12;;;;;;;5.85;5.45;;;51.20;11.60;;;32.52;19.61;96555.91;5026425;28;20022;-52
2022/07/08 17:03:41;;;;;;;6.03;5.63;;;51.30;11.50;;;32.86;19.67;96562.81;5017159;28;20024;-51
2022/07/08 17:06:07;;;;;;;6.38;5.88;;;51.60;11.60;;;33.13;19.81;96557.84;5029749;28;20021;-52
2022/07/08 17:08:33;;;;;;;6.38;5.75;;;51.90;12.10;;;33.30;19.60;96561.03;5029829;28;20054;-52
2022/07/08 17:11:11;;;;;;;6.55;5.82;;;52.20;11.60;;;33.20;20.09;96559.81;5029355;28;20104;-49
2022/07/08 17:13:37;;;;;;;4.47;4.10;;;52.50;11.60;;;33.09;19.86;96553.47;5030829;28;20037;-50
2022/07/08 17:16:06;;;;;;;4.90;2.80;;;52.30;11.30;;;32.15;20.65;96552.06;5031069;28;20112;-49
2022/07/08 17:18:34;;;;;;;4.20;2.40;;;50.90;11.20;;;31.30;20.94;96549.25;5030957;28;20039;-52
2022/07/08 17:21:00;;;;;;;4.05;2.00;;;48.10;11.90;;;30.83;21.56;96550.66;5030274;28;20391;-51
2022/07/08 17:23:29;;;;;;;2.70;1.98;;;45.30;13.00;;;29.68;23.18;96556.31;5013068;28;20032;-50
2022/07/08 17:25:58;;;;;;;2.25;1.95;;;42.70;13.90;;;28.81;24.20;96550.25;5013007;28;20111;-53
2022/07/08 17:28:24;;;;;;;2.17;1.70;;;40.30;14.90;;;28.03;25.27;96546.50;5019947;28;20078;-48
2022/07/08 17:30:53;;;;;;;3.28;1.85;;;38.30;15.80;;;27.57;27.58;96549.59;5024852;28;20023;-52
2022/07/08 17:33:19;;;;;;;4.30;1.75;;;36.60;17.00;;;26.89;27.59;96550.47;5028519;28;20040;-55
2022/07/08 17:35:45;;;;;;;2.30;1.75;;;35.20;17.90;;;26.17;28.24;96552.19;5029492;28;20107;-51
2022/07/08 17:38:11;;;;;;;3.38;1.52;;;34.00;18.70;;;25.55;29.75;96554.00;5028769;28;20033;-51
2022/07/08 17:40:37;;;;;;;2.10;1.60;;;32.90;19.40;;;24.83;30.49;96556.09;5028671;28;20040;-50
2022/07/08 17:43:14;;;;;;;2.72;1.50;;;31.90;20.10;;;24.28;32.24;96557.06;5027811;28;20545;-50
2022/07/08 17:45:40;;;;;;;3.28;1.58;;;31.10;21.00;;;24.14;32.82;96549.94;5028223;28;20203;-53
2022/07/08 17:48:18;;;;;;;2.83;1.67;;;30.40;21.60;;;23.86;33.21;96548.81;5028000;28;20085;-49
2022/07/08 17:50:45;;;;;;;2.55;1.50;;;29.70;22.50;;;23.74;35.25;96557.66;5021762;28;20055;-50
2022/07/08 17:53:10;;;;;;;11.20;1.70;;;29.20;23.10;;;23.41;34.25;96549.22;5009765;28;20032;-50
2022/07/08 17:55:36;;;;;;;1.95;1.38;;;28.70;23.50;;;23.33;34.75;96553.59;4992135;28;20033;-44
2022/07/08 17:58:08;;;;;;;3.22;1.40;;;28.30;24.00;;;23.02;36.60;96551.88;4897412;28;68700;-46
2022/07/08 18:00:37;;;;;;;4.57;1.70;;;28.00;24.90;;;22.92;36.74;96556.81;5013534;28;20032;-53
2022/07/08 18:03:06;;;;;;;4.45;1.67;;;27.70;25.30;;;22.68;36.85;96555.34;5013763;28;20025;-47
2022/07/08 18:05:34;;;;;;;5.68;1.70;;;27.40;25.60;;;22.68;38.30;96551.84;5010249;28;20380;-50
2022/07/08 18:08:06;;;;;;;2.28;1.30;;;27.10;26.30;;;22.49;36.77;96550.22;5008949;28;20033;-45
2022/07/08 18:10:36;;;;;;;2.55;1.70;;;26.90;26.60;;;22.39;38.69;96559.47;5009102;28;20455;-49
2022/07/08 18:13:04;;;;;;;6.63;1.48;;;26.70;27.00;;;22.27;39.97;96559.28;5009846;28;20484;-47
2022/07/08 18:15:31;;;;;;;5.18;1.50;;;26.50;27.50;;;22.14;40.83;96560.97;5009090;28;20025;-53
2022/07/08 18:17:59;;;;;;;3.85;1.50;;;26.30;27.90;;;21.89;42.55;96562.50;4976989;28;20162;-45
2022/07/08 18:20:28;;;;;;;3.55;1.75;;;26.10;28.50;;;21.67;44.60;96566.06;5010279;28;20479;-48
2022/07/08 18:22:54;;;;;;;2.67;1.30;;;25.90;29.40;;;21.58;44.50;96559.00;5010347;28;20044;-50
2022/07/08 18:25:19;;;;;;;2.47;1.67;;;25.70;29.80;;;21.38;44.59;96555.72;5008806;28;20391;-51
2022/07/08 18:27:45;;;;;;;2.45;1.30;;;25.50;30.20;;;21.27;43.75;96557.03;5010300;28;20028;-50
2022/07/08 18:30:12;;;;;;;1.85;1.50;;;25.30;30.40;;;21.15;45.43;96560.34;5009935;28;20033;-50
2022/07/08 18:32:55;;;;;;;3.60;1.33;;;25.10;31.20;;;20.98;45.57;96555.59;5010127;28;20078;-50
2022/07/08 18:35:27;;;;;;;2.78;1.30;;;25.00;32.10;;;20.72;47.32;96555.38;5008902;28;20032;-49
2022/07/08 18:37:53;;;;;;;3.50;1.63;;;24.80;32.50;;;20.53;48.04;96557.44;5016599;28;20028;-50
2022/07/08 18:40:19;;;;;;;1.88;1.40;;;24.60;32.60;;;20.31;47.66;96558.97;5027814;28;20090;-44
2022/07/08 18:42:48;;;;;;;4.45;1.10;;;24.40;33.00;;;20.15;49.05;96563.09;5029026;28;20021;-52
2022/07/08 18:45:22;;;;;;;3.63;1.40;;;24.30;33.60;;;19.98;50.41;96560.97;5014342;28;20045;-47
2022/07/08 18:47:51;;;;;;;2.65;1.30;;;24.10;34.40;;;19.84;51.41;96562.91;5009011;28;20033;-51
2022/07/08 18:50:19;;;;;;;3.83;1.30;;;23.90;34.80;;;19.72;51.02;96562.59;5010709;28;20025;-52
2022/07/08 18:52:57;;;;;;;3.75;1.70;;;23.70;35.30;;;19.58;51.94;96560.63;4992554;28;20396;-52
2022/07/08 18:55:26;;;;;;;3.45;1.67;;;23.60;36.20;;;19.50;51.82;96558.63;5025303;28;20025;-50
2022/07/08 18:57:55;;;;;;;3.05;1.42;;;23.40;36.20;;;19.37;52.16;96557.50;5009135;28;20422;-49
2022/07/08 19:00:21;;;;;;;1.70;1.20;;;23.30;36.60;;;19.29;51.92;96568.19;5010864;28;20056;-51
2022/07/08 19:02:49;;;;;;;5.32;1.60;;;23.20;37.00;;;19.16;52.25;96565.16;5028806;28;20033;-51
2022/07/08 19:05:15;;;;;;;2.08;1.55;;;23.00;37.40;;;19.07;53.00;96560.72;4996056;28;20029;-46
2022/07/08 19:07:42;;;;;;;4.18;1.70;;;22.90;37.80;;;18.94;53.64;96559.56;5012390;28;20618;-49
2022/07/08 19:10:10;;;;;;;4.82;1.50;;;22.80;38.20;;;18.84;53.85;96560.53;5011735;28;20021;-51
2022/07/08 19:12:38;;;;;;;2.83;1.55;;;22.70;38.60;;;18.73;54.61;96559.06;5028693;28;20037;-48
2022/07/08 19:15:07;;;;;;;1.98;1.30;;;22.50;39.00;;;18.60;55.19;96567.88;5018953;28;20444;-48
2022/07/08 19:17:34;;;;;;;5.53;1.70;;;22.40;39.50;;;18.45;56.63;96571.59;5031051;28;20475;-50
2022/07/08 19:20:00;;;;;;;3.28;2.03;;;22.30;40.00;;;18.32;57.18;96567.72;5030312;28;20032;-50
2022/07/08 19:22:28;;;;;;;4.72;1.70;;;22.20;40.40;;;18.17;57.60;96570.59;5032564;28;20472;-50
2022/07/08 19:24:56;;;;;;;3.10;1.50;;;22.00;40.70;;;18.00;58.69;96569.19;5031906;28;20146;-50
2022/07/08 19:27:23;;;;;;;6.32;1.70;;;21.90;41.20;;;17.87;58.96;96577.16;5029595;28;20103;-49
2022/07/08 19:29:53;;;;;;;6.18;1.95;;;21.70;41.70;;;17.71;59.25;96581.91;5028713;28;21881;-50
2022/07/08 19:32:20;;;;;;;6.60;2.17;;;21.60;42.10;;;17.55;60.28;96582.03;5019049;28;20032;-48
2022/07/08 19:34:49;;;;;;;3.70;2.08;;;21.40;42.50;;;17.35;60.54;96584.91;5027949;28;20036;-50
2022/07/08 19:37:30;;;;;;;3.05;1.52;;;21.20;42.90;;;17.16;61.41;96587.50;5023820;28;20113;-50
2022/07/08 19:39:58;;;;;;;4.20;1.90;;;21.10;43.40;;;17.02;61.85;96589.25;5028717;28;20444;-52
2022/07/08 19:42:24;;;;;;;2.78;1.50;;;20.90;43.60;;;16.86;62.03;96589.34;5030723;28;20052;-54
2022/07/08 19:44:50;;;;;;;2.38;1.88;;;20.70;43.70;;;16.70;62.77;96595.06;5017177;28;20025;-50
2022/07/08 19:47:18;;;;;;;5.43;1.70;;;20.60;44.10;;;16.57;62.79;96588.44;5014417;28;20044;-49
2022/07/08 19:49:50;;;;;;;3.55;1.77;;;20.50;44.50;;;16.43;63.44;96589.06;5030717;28;20115;-48
2022/07/08 19:52:19;;;;;;;4.47;2.08;;;20.30;45.00;;;16.32;63.73;96594.75;5019651;28;20041;-50
2022/07/08 19:54:48;;;;;;;6.13;2.00;;;20.20;45.30;;;16.18;63.98;96589.97;5017022;28;20495;-45
2022/07/08 19:57:13;;;;;;;3.40;1.73;;;20.10;45.60;;;16.05;64.59;96598.63;5011488;28;20021;-48
2022/07/08 19:59:39;;;;;;;3.95;1.70;;;19.90;45.70;;;15.94;65.02;96591.69;5011904;28;20021;-50
2022/07/08 20:02:05;;;;;;;4.28;2.03;;;19.80;46.00;;;15.83;65.28;96601.66;5010024;28;20079;-44
2022/07/08 20:04:31;;;;;;;2.95;2.03;;;19.70;46.30;;;15.72;65.98;96598.19;5026906;28;20021;-44
2022/07/08 20:07:07;;;;;;;4.57;1.88;;;19.60;46.50;;;15.60;65.95;96608.38;5014707;28;20083;-44
2022/07/08 20:09:33;;;;;;;3.03;1.50;;;19.50;47.10;;;15.46;66.33;96596.59;5009715;28;20044;-43
2022/07/08 20:12:04;;;;;;;4.45;2.00;;;19.40;47.00;;;15.37;66.39;96603.59;5009550;28;20083;-46
2022/07/08 20:14:36;;;;;;;5.72;1.80;;;19.30;47.40;;;15.25;66.39;96604.66;5010447;28;20025;-50
2022/07/08 20:17:02;;;;;;;4.05;2.00;;;19.20;47.70;;;15.18;67.16;96612.19;5011214;28;20390;-50
2022/07/08 20:19:29;;;;;;;2.83;2.13;;;19.10;47.60;;;15.12;67.26;96612.47;5010528;28;20025;-48
2022/07/08 20:21:56;;;;;;;3.58;1.55;;;19.00;47.80;;;15.03;67.29;96607.63;5016328;28;20108;-55
2022/07/08 20:24:22;;;;;;;2.72;1.70;;;18.90;48.00;;;14.96;68.16;96606.28;5010816;28;20036;-50
2022/07/08 20:26:50;;;;;;;5.65;2.10;;;18.90;48.20;;;14.93;67.81;96610.28;5009593;28;20021;-44
2022/07/08 20:29:25;;;;;;;3.75;1.85;;;18.80;48.40;;;14.89;67.91;96608.44;5011176;28;20035;-52
2022/07/08 20:31:52;;;;;;;4.10;1.90;;;18.70;48.90;;;14.79;68.50;96614.56;5010377;28;20099;-45
2022/07/08 20:34:21;;;;;;;5.05;2.00;;;18.60;48.70;;;14.71;68.88;96607.06;5010155;28;20021;-47
2022/07/08 20:36:50;;;;;;;6.13;1.95;;;18.60;49.20;;;14.66;68.24;96609.72;5017600;28;20017;-52
2022/07/08 20:39:17;;;;;;;3.22;2.20;;;18.50;49.30;;;14.62;68.35;96620.16;5010021;28;20120;-51
2022/07/08 20:44:29;;;;;;;4.35;2.08;;;18.40;49.40;;;14.50;68.23;96617.69;5010837;28;20132;-53
2022/07/08 20:46:55;;;;;;;4.53;1.90;;;18.30;49.50;;;14.45;68.42;96614.22;5009380;28;20025;-49
2022/07/08 20:49:27;;;;;;;4.22;2.20;;;18.30;49.60;;;14.40;68.62;96622.22;5025383;28;20037;-48
2022/07/08 20:52:02;;;;;;;3.00;1.98;;;18.20;49.90;;;14.38;68.75;96622.47;5023878;28;20052;-50
2022/07/08 20:54:28;;;;;;;4.03;2.20;;;18.20;50.10;;;14.31;69.18;96621.91;5030481;28;20025;-53
2022/07/08 20:56:57;;;;;;;2.53;1.80;;;18.10;50.00;;;14.25;69.16;96612.25;5030319;28;20053;-49
2022/07/08 20:59:26;;;;;;;5.15;1.90;;;18.10;50.30;;;14.22;69.52;96615.44;5030157;28;20024;-50
2022/07/08 21:01:58;;;;;;;4.75;2.63;;;18.00;50.30;;;14.18;69.77;96620.53;5045795;28;20040;-53
2022/07/08 21:04:24;;;;;;;5.45;2.05;;;18.00;50.40;;;14.14;69.90;96619.47;5030219;28;20031;-51
2022/07/08 21:06:50;;;;;;;3.78;2.30;;;18.00;50.50;;;14.10;70.12;96611.13;5016187;28;20028;-48
2022/07/08 21:09:23;;;;;;;4.18;2.03;;;17.90;50.70;;;14.05;70.34;96611.09;5029978;28;20082;-46
2022/07/08 21:11:49;;;;;;;;;;;17.90;50.90;;;14.01;70.71;96611.91;5029792;28;20391;-52
2022/07/08 21:14:17;;;;;;;3.53;1.80;;;17.80;50.20;;;13.89;71.12;96609.44;5018322;28;19905;-48
2022/07/08 21:16:44;;;;;;;2.20;1.63;;;17.80;50.50;;;13.86;71.19;96609.94;5011282;28;20376;-44
2022/07/08 21:19:16;;;;;;;4.38;2.65;;;17.80;50.80;;;13.77;72.21;96606.16;5011092;28;20466;-52
2022/07/08 21:21:44;;;;;;;6.60;2.43;;;17.70;51.20;;;13.71;71.91;96605.31;5008961;28;20106;-46
2022/07/08 21:24:14;;;;;;;3.45;1.77;;;17.60;51.10;;;13.71;71.57;96602.63;5010952;28;20021;-49
2022/07/08 21:26:40;;;;;;;4.07;1.70;;;17.60;51.30;;;13.74;71.38;96601.31;5009928;28;20494;-47
2022/07/08 21:29:07;;;;;;;9.10;2.40;;;17.60;51.50;;;13.74;71.26;96598.63;5009692;28;20031;-46
2022/07/08 21:31:42;;;;;;;3.10;1.95;;;17.60;51.60;;;13.74;71.13;96607.47;5009360;28;20507;-47
2022/07/08 21:34:17;;;;;;;5.97;2.35;;;17.50;51.80;;;13.74;71.24;96618.19;5018945;28;20072;-46
2022/07/08 21:36:43;;;;;;;3.30;1.77;;;17.50;51.90;;;13.80;70.33;96611.78;5018437;28;20032;-48
2022/07/08 21:39:12;;;;;;;3.65;1.95;;;17.50;51.80;;;13.92;69.67;96613.47;5030402;28;20024;-49
2022/07/08 21:41:41;;;;;;;3.63;1.98;;;17.50;51.80;;;14.10;68.01;96615.66;5008039;23;20060;-47
2022/07/08 21:44:07;;;;;;;8.05;2.13;;;17.60;51.90;;;14.23;68.16;96617.09;4973862;28;20037;-49
2022/07/08 21:46:38;;;;;;;5.30;1.90;;;17.70;51.90;;;14.29;68.23;96622.19;4981654;28;20441;-48
2022/07/08 21:49:07;;;;;;;5.25;2.22;;;17.80;52.10;;;14.39;68.58;96609.91;4972876;28;20033;-46
2022/07/08 21:51:33;;;;;;;6.35;1.80;;;17.80;52.10;;;14.46;67.70;96613.94;4957540;28;20030;-47
2022/07/08 21:53:59;;;;;;;3.97;2.25;;;17.90;52.00;;;14.57;67.87;96612.94;4951145;28;20097;-48
2022/07/08 21:56:25;;;;;;;2.83;1.90;;;18.00;52.00;;;14.64;67.26;96612.69;4951487;28;20481;-48
2022/07/08 21:59:02;;;;;;;3.38;2.20;;;18.10;52.00;;;14.71;66.94;96618.59;4963096;28;20499;-47
